CheckWX is a tool to help pilots better visualize weather data.  It is not intended as a substitute for an official pre-flight weather briefing.

01:13:46 UTC

EGLF METAR
Farnborough Airport
Farnborough, United Kingdom
Current

24 mins ago

EGLF 200050Z AUTO 24008KT 9999 NCD 11/09 Q1019
Observed
Aug-20 @ 00:50 UTC
Wind
  • 240° at 8 KTS
Visibility
10,000+ meters
Flight Rules
VFR
Cloud Levels
  • Clear skies
Temperature
11°C / 52°F
Dewpoint
C / 48°F
Humidity
88%
Altimeter
30.09" Hg
Pressure
1018.92 hPa
Previous

54 mins ago

EGLF 200020Z AUTO 23007KT 9999 NCD 10/08 Q1019
Observed
Aug-20 @ 00:20 UTC
Wind
  • 230° at 7 KTS
Visibility
10,000+ meters
Flight Rules
VFR
Cloud Levels
  • Clear skies
Temperature
10°C / 50°F
Dewpoint
C / 46°F
Humidity
88%
Altimeter
30.09" Hg
Pressure
1018.92 hPa
Previous

1 hour ago

EGLF 192350Z AUTO 25006KT 9999 NCD 11/09 Q1019
Observed
Aug-19 @ 23:50 UTC
Wind
  • 250° at 6 KTS
Visibility
10,000+ meters
Flight Rules
VFR
Cloud Levels
  • Clear skies
Temperature
11°C / 52°F
Dewpoint
C / 48°F
Humidity
88%
Altimeter
30.09" Hg
Pressure
1018.92 hPa